Aérodrome :
LOGIN :

S'inscrire | Disclaimer

   EN    FR    IT 

 










Légende :    VFR   VFR Marginal   IFR   IFR Intensif   IFR Très Intensif
Visi : 
Plafond : 
>= 8 km
>= 3000ft
5 à 8 km
1000 à 3000 ft
1500m à 5 km
500 à 1000 ft
800 à 1500m
200 à 500 ft
< 800m
< 200 ft
Symboles :   Orages  Brouillard  Fortes neiges  Fortes précipitations  Vent > 20 kt
SIGMETs :   Divers  Orages  Givrage  Turbulence  Onde Orograph.  Cendres Volcan.






- Altitude de l'aérodrome : 7 ft
- Code IATA : POW


LJPZ - Portoroz

DERNIER METAR :
  • 151530Z 20005KT 130V240 9999 FEW050 BKN080 15/11 Q1016

METARs EXPIRÉS :
  • 151500Z 18007KT 150V220 9999 FEW040 BKN080 15/10 Q1015
  • 151430Z 20008KT 160V240 9999 FEW040 BKN080 15/10 Q1015
  • 151400Z 21008KT 160V240 9999 FEW040 BKN080 16/10 Q1015
  • 151330Z 20004KT 160V240 9999 FEW040 BKN080 16/11 Q1014
  • 151300Z VRB02KT 9999 FEW042 BKN065 15/11 Q1015

TAF TAF LJPZ
Valide du 15 à 15h jusqu'au 16 à 00h UTC


151400Z 1515/1524 19005KT 9999 FEW040 BKN080
BECMG 1518/1520 12005KT
TEMPO 1515/1524 BKN040



MET'MAP, la Météo Aéronautique d'un coup d'oeil ! - Copyright ORBIFLY Décembre 2007 - Disclaimer

ORBIFLY MET'MAP TEAM :

Programmation & Développement : Alexandra Zaïnal
Sur une idée originale de : Baudouin d'Aumeries
Assistance à la programmation : Marc-Olivier Méhu
Soutien technique & logistique : Manuel Goepfert

Contact : metmap@orbifly.com




SOURCES & CREDITS :

   NOAA